createdAt,value
2023-04-05T00:02:19.302Z,0.76
2023-04-05T00:04:53.279Z,0.79
2023-04-05T00:07:23.101Z,0.84
2023-04-05T00:09:52.526Z,0.88
2023-04-05T00:12:21.934Z,0.91
2023-04-05T00:14:53.067Z,0.94
2023-04-05T00:17:24.016Z,0.95
2023-04-05T00:19:57.631Z,0.96
2023-04-05T00:22:32.677Z,0.97
2023-04-05T00:25:05.260Z,1.01
2023-04-05T00:27:35.903Z,1.03
2023-04-05T00:30:07.207Z,1.06
2023-04-05T00:32:37.430Z,1.05
2023-04-05T00:35:07.617Z,1.04
2023-04-05T00:37:36.834Z,1.04
2023-04-05T00:40:08.095Z,1.03
2023-04-05T00:42:38.162Z,1.02
2023-04-05T00:45:09.435Z,1.00
2023-04-05T00:47:41.603Z,0.96
2023-04-05T00:50:13.096Z,0.90
2023-04-05T00:52:44.453Z,0.87
2023-04-05T00:55:14.813Z,0.83
2023-04-05T00:57:45.685Z,0.79
2023-04-05T01:00:16.437Z,0.76
2023-04-05T01:02:52.878Z,0.73
2023-04-05T01:05:36.824Z,0.70
2023-04-05T01:08:15.429Z,0.67
2023-04-05T01:11:00.955Z,0.65
2023-04-05T01:13:31.225Z,0.65
2023-04-05T01:16:01.578Z,0.62
2023-04-05T01:18:31.490Z,0.59
2023-04-05T01:21:42.111Z,0.59
2023-04-05T01:25:03.785Z,0.58
2023-04-05T01:28:15.093Z,0.62
2023-04-05T01:31:17.892Z,0.66
2023-04-05T01:34:00.145Z,0.71
2023-04-05T01:36:41.269Z,0.75
2023-04-05T01:39:15.163Z,0.80
2023-04-05T01:41:44.529Z,0.83
2023-04-05T01:44:14.323Z,0.84
2023-04-05T01:46:44.163Z,0.84
2023-04-05T01:49:15.601Z,0.84
2023-04-05T01:51:45.740Z,0.79
2023-04-05T01:54:16.261Z,0.78
2023-04-05T01:56:47.094Z,0.79
2023-04-05T01:59:16.880Z,0.79
2023-04-05T02:01:51.652Z,0.76
2023-04-05T02:04:21.303Z,0.76
2023-04-05T02:06:51.304Z,0.73
2023-04-05T02:09:21.180Z,0.71
2023-04-05T02:11:51.038Z,0.70
2023-04-05T02:14:21.686Z,0.69
2023-04-05T02:16:52.443Z,0.68
2023-04-05T02:19:23.358Z,0.63
2023-04-05T02:21:56.743Z,0.60
2023-04-05T02:24:26.894Z,0.59
2023-04-05T02:26:56.845Z,0.58
2023-04-05T02:29:28.014Z,0.57
2023-04-05T02:32:00.757Z,0.57
2023-04-05T02:34:31.193Z,0.57
2023-04-05T02:37:04.498Z,0.57
2023-04-05T02:39:36.516Z,0.55
2023-04-05T02:42:06.696Z,0.57
2023-04-05T02:44:37.596Z,0.60
2023-04-05T02:47:10.473Z,0.63
2023-04-05T02:49:39.681Z,0.63
2023-04-05T02:52:11.202Z,0.64
2023-04-05T02:54:41.022Z,0.66
2023-04-05T02:57:12.025Z,0.68
2023-04-05T02:59:47.441Z,0.74
2023-04-05T03:02:17.479Z,0.78
2023-04-05T03:04:47.382Z,0.79
2023-04-05T03:07:19.242Z,0.83
2023-04-05T03:09:51.921Z,0.86
2023-04-05T03:12:22.112Z,0.86
2023-04-05T03:14:54.974Z,0.86
2023-04-05T03:17:26.485Z,0.87
2023-04-05T03:20:09.822Z,0.89
2023-04-05T03:22:41.474Z,0.87
2023-04-05T03:25:16.558Z,0.84
2023-04-05T03:27:49.335Z,0.85
2023-04-05T03:30:25.433Z,0.89
2023-04-05T03:33:02.394Z,0.89
2023-04-05T03:35:40.133Z,0.91
2023-04-05T03:38:12.329Z,0.91
2023-04-05T03:40:49.653Z,0.85
2023-04-05T03:43:20.027Z,0.78
2023-04-05T03:45:50.047Z,0.72
2023-04-05T03:48:20.959Z,0.69
2023-04-05T03:50:52.077Z,0.68
2023-04-05T03:53:23.880Z,0.63
2023-04-05T03:55:58.022Z,0.59
2023-04-05T03:58:44.416Z,0.58
2023-04-05T04:01:15.982Z,0.60
2023-04-05T04:03:45.965Z,0.61
2023-04-05T04:06:19.209Z,0.62
2023-04-05T04:08:49.098Z,0.60
2023-04-05T04:11:20.325Z,0.62
2023-04-05T04:13:52.177Z,0.64
2023-04-05T04:16:48.209Z,0.68
2023-04-05T04:19:36.301Z,0.75
2023-04-05T04:22:39.214Z,0.80
2023-04-05T04:25:22.999Z,0.83
2023-04-05T04:28:08.549Z,0.85
2023-04-05T04:30:49.211Z,0.87
2023-04-05T04:33:45.482Z,0.89
2023-04-05T04:36:39.849Z,0.92
2023-04-05T04:39:50.921Z,0.95
2023-04-05T04:42:39.479Z,0.95
2023-04-05T04:45:12.999Z,0.95
2023-04-05T04:47:50.435Z,0.99
2023-04-05T04:50:28.982Z,1.00
2023-04-05T04:53:02.707Z,1.02
2023-04-05T04:55:34.646Z,1.01
2023-04-05T04:58:11.466Z,1.00
2023-04-05T05:00:45.097Z,1.02
2023-04-05T05:03:17.114Z,1.02
2023-04-05T05:05:49.470Z,0.99
2023-04-05T05:08:28.629Z,1.02
2023-04-05T05:10:58.525Z,1.03
2023-04-05T05:13:28.345Z,1.06
2023-04-05T05:16:01.130Z,1.09
2023-04-05T05:18:30.692Z,1.07
2023-04-05T05:21:00.780Z,1.06
2023-04-05T05:23:32.719Z,1.08
2023-04-05T05:26:06.894Z,1.11
2023-04-05T05:28:41.055Z,1.14
2023-04-05T05:31:12.844Z,1.14
2023-04-05T05:33:46.422Z,1.18
2023-04-05T05:36:20.423Z,1.24
2023-04-05T05:38:53.047Z,1.32
2023-04-05T05:41:22.996Z,1.39
2023-04-05T05:43:52.932Z,1.45
2023-04-05T05:46:23.693Z,1.45
2023-04-05T05:48:53.712Z,1.48
2023-04-05T05:51:22.925Z,1.50
2023-04-05T05:53:53.511Z,1.52
2023-04-05T05:56:23.485Z,1.57
2023-04-05T05:59:00.904Z,1.63
2023-04-05T06:01:30.144Z,1.67
2023-04-05T06:03:59.634Z,1.75
2023-04-05T06:06:36.080Z,1.80
2023-04-05T06:09:07.553Z,1.82
2023-04-05T06:11:46.246Z,1.90
2023-04-05T06:14:23.199Z,1.90
2023-04-05T06:16:56.254Z,1.86
2023-04-05T06:19:26.011Z,1.83
2023-04-05T06:22:02.693Z,1.82
2023-04-05T06:24:32.657Z,1.82
2023-04-05T06:27:03.570Z,1.82
2023-04-05T06:29:33.094Z,1.81
2023-04-05T06:32:05.955Z,1.78
2023-04-05T06:34:35.299Z,1.81
2023-04-05T06:37:05.222Z,1.82
2023-04-05T06:39:37.488Z,1.88
2023-04-05T06:42:06.947Z,1.94
2023-04-05T06:44:42.413Z,1.99
2023-04-05T06:47:17.195Z,2.04
2023-04-05T06:49:47.095Z,2.10
2023-04-05T06:52:17.114Z,2.17
2023-04-05T06:54:47.235Z,2.26
2023-04-05T06:57:19.854Z,2.32
2023-04-05T06:59:55.669Z,2.42
2023-04-05T07:02:28.815Z,2.53
2023-04-05T07:05:06.268Z,2.58
2023-04-05T07:07:42.866Z,2.61
2023-04-05T07:10:12.579Z,2.77
2023-04-05T07:12:43.093Z,2.94
2023-04-05T07:15:13.856Z,3.10
2023-04-05T07:17:44.120Z,3.16
2023-04-05T07:20:16.874Z,3.17
2023-04-05T07:22:49.357Z,3.17
2023-04-05T07:25:20.524Z,3.24
2023-04-05T07:27:50.217Z,3.29
2023-04-05T07:30:19.821Z,3.34
2023-04-05T07:32:49.611Z,3.42
2023-04-05T07:35:25.727Z,3.43
2023-04-05T07:37:56.886Z,3.42
2023-04-05T07:40:26.681Z,3.51
2023-04-05T07:42:57.403Z,3.49
2023-04-05T07:45:28.006Z,3.52
2023-04-05T07:47:59.642Z,3.60
2023-04-05T07:50:32.916Z,3.62
2023-04-05T07:53:02.090Z,3.56
2023-04-05T07:55:32.562Z,3.50
2023-04-05T07:58:02.212Z,3.48
2023-04-05T08:00:32.156Z,3.42
2023-04-05T08:03:02.684Z,3.42
2023-04-05T08:05:33.984Z,3.47
2023-04-05T08:08:04.972Z,3.56
2023-04-05T08:10:44.526Z,3.73
2023-04-05T08:13:14.678Z,3.87
2023-04-05T08:15:44.136Z,3.90
2023-04-05T08:18:15.385Z,3.89
2023-04-05T08:20:45.928Z,3.88
2023-04-05T08:23:16.916Z,3.92
2023-04-05T08:25:46.691Z,4.00
2023-04-05T08:28:17.825Z,4.03
2023-04-05T08:30:48.908Z,4.05
2023-04-05T08:33:21.706Z,4.09
2023-04-05T08:35:51.585Z,4.11
2023-04-05T08:38:27.242Z,4.08
2023-04-05T08:41:08.220Z,4.13
2023-04-05T08:43:50.155Z,4.14
2023-04-05T08:46:23.088Z,4.24
2023-04-05T08:48:53.818Z,4.40
2023-04-05T08:51:27.183Z,4.40
2023-04-05T08:54:05.505Z,4.39
2023-04-05T08:56:38.334Z,4.54
2023-04-05T08:59:13.572Z,4.76
2023-04-05T09:01:45.792Z,4.96
2023-04-05T09:04:23.949Z,5.08
2023-04-05T09:06:58.529Z,5.15
2023-04-05T09:09:36.588Z,5.08
2023-04-05T09:12:21.251Z,5.00
2023-04-05T09:14:53.554Z,4.91
2023-04-05T09:17:23.688Z,4.87
2023-04-05T09:19:53.426Z,4.97
2023-04-05T09:22:24.944Z,4.95
2023-04-05T09:24:54.852Z,5.00
2023-04-05T09:27:28.879Z,5.14
2023-04-05T09:30:01.763Z,5.25
2023-04-05T09:32:32.243Z,5.33
2023-04-05T09:35:04.971Z,5.39
2023-04-05T09:37:37.703Z,5.44
2023-04-05T09:40:10.940Z,5.48
2023-04-05T09:42:48.866Z,5.44
2023-04-05T09:45:19.941Z,5.39
2023-04-05T09:47:59.804Z,5.43
2023-04-05T09:50:30.067Z,5.32
2023-04-05T09:53:19.439Z,5.33
2023-04-05T09:56:09.268Z,5.30
2023-04-05T09:58:40.915Z,5.27
2023-04-05T10:01:16.911Z,5.21
2023-04-05T10:03:50.986Z,5.22
2023-04-05T10:06:22.561Z,5.26
2023-04-05T10:08:54.201Z,5.35
2023-04-05T10:11:24.179Z,5.46
2023-04-05T10:13:54.631Z,5.54
2023-04-05T10:16:30.316Z,5.55
2023-04-05T10:19:01.483Z,5.59
2023-04-05T10:21:36.547Z,5.61
2023-04-05T10:24:50.776Z,5.67
2023-04-05T10:27:31.232Z,5.61
2023-04-05T10:30:09.435Z,5.55
2023-04-05T10:32:57.842Z,5.63
2023-04-05T10:36:02.142Z,5.80
2023-04-05T10:39:05.736Z,5.90
2023-04-05T10:42:01.370Z,5.80
2023-04-05T10:44:33.616Z,5.84
2023-04-05T10:47:07.785Z,5.95
2023-04-05T10:49:44.923Z,5.98
2023-04-05T10:52:30.418Z,6.08
2023-04-05T10:55:04.747Z,6.18
2023-04-05T10:57:40.149Z,6.21
2023-04-05T11:00:19.636Z,6.21
2023-04-05T11:03:09.853Z,6.08
2023-04-05T11:05:40.350Z,6.08
2023-04-05T11:08:13.576Z,6.14
2023-04-05T11:10:56.209Z,6.17
2023-04-05T11:13:50.715Z,6.16
2023-04-05T11:16:24.000Z,6.20
2023-04-05T11:18:53.952Z,6.24
2023-04-05T11:21:26.135Z,6.28
2023-04-05T11:24:12.334Z,6.36
2023-04-05T11:26:49.387Z,6.59
2023-04-05T11:29:41.137Z,6.78
2023-04-05T11:32:14.603Z,6.95
2023-04-05T11:34:44.661Z,6.87
2023-04-05T11:37:16.590Z,6.71
2023-04-05T11:39:46.341Z,6.60
2023-04-05T11:42:18.730Z,6.56
2023-04-05T11:44:49.830Z,6.37
2023-04-05T11:47:23.846Z,6.29
2023-04-05T11:49:53.407Z,6.16
2023-04-05T11:52:23.273Z,6.05
2023-04-05T11:54:53.774Z,5.96
2023-04-05T11:57:25.477Z,5.95
2023-04-05T11:59:57.314Z,5.97
2023-04-05T12:02:27.304Z,5.94
2023-04-05T12:04:58.665Z,5.96
2023-04-05T12:07:33.076Z,5.90
2023-04-05T12:10:16.451Z,5.98
2023-04-05T12:12:48.388Z,6.16
2023-04-05T12:15:19.483Z,6.31
2023-04-05T12:17:51.779Z,6.45
2023-04-05T12:20:26.538Z,6.59
2023-04-05T12:22:57.854Z,6.70
2023-04-05T12:25:27.640Z,6.69
2023-04-05T12:27:59.417Z,6.59
2023-04-05T12:30:37.681Z,6.46
2023-04-05T12:33:12.446Z,6.36
2023-04-05T12:35:42.221Z,6.32
2023-04-05T12:38:18.101Z,6.33
2023-04-05T12:40:56.003Z,6.41
2023-04-05T12:43:27.318Z,6.49
2023-04-05T12:45:58.278Z,6.49
2023-04-05T12:48:29.740Z,6.46
2023-04-05T12:51:16.906Z,6.35
2023-04-05T12:53:48.746Z,6.37
2023-04-05T12:56:18.223Z,6.39
2023-04-05T12:58:52.876Z,6.30
2023-04-05T13:01:22.375Z,6.31
2023-04-05T13:03:58.910Z,6.21
2023-04-05T13:06:35.813Z,6.06
2023-04-05T13:09:05.317Z,5.92
2023-04-05T13:11:35.225Z,5.96
2023-04-05T13:14:04.645Z,6.05
2023-04-05T13:16:36.976Z,6.03
2023-04-05T13:19:06.910Z,5.94
2023-04-05T13:21:37.568Z,5.89
2023-04-05T13:24:07.551Z,5.87
2023-04-05T13:26:37.949Z,5.85
2023-04-05T13:29:08.798Z,5.94
2023-04-05T13:31:41.457Z,6.06
2023-04-05T13:34:11.784Z,6.14
2023-04-05T13:36:41.430Z,6.18
2023-04-05T13:39:11.919Z,6.13
2023-04-05T13:41:42.773Z,6.17
2023-04-05T13:44:12.163Z,6.18
2023-04-05T13:46:41.728Z,6.18
2023-04-05T13:49:11.655Z,6.18
2023-04-05T13:51:42.247Z,6.18
2023-04-05T13:54:12.184Z,6.10
2023-04-05T13:56:42.855Z,6.11
2023-04-05T13:59:17.669Z,6.01
2023-04-05T14:01:49.464Z,5.97
2023-04-05T14:04:19.874Z,5.92
2023-04-05T14:06:49.485Z,5.81
2023-04-05T14:09:19.018Z,5.79
2023-04-05T14:11:49.634Z,5.76
2023-04-05T14:14:19.532Z,5.70
2023-04-05T14:16:49.977Z,5.72
2023-04-05T14:19:21.033Z,5.67
2023-04-05T14:21:52.049Z,5.64
2023-04-05T14:24:21.974Z,5.65
2023-04-05T14:26:51.608Z,5.67
2023-04-05T14:29:21.154Z,5.66
2023-04-05T14:31:50.997Z,5.61
2023-04-05T14:34:20.746Z,5.51
2023-04-05T14:36:50.264Z,5.49
2023-04-05T14:39:22.034Z,5.47
2023-04-05T14:41:53.358Z,5.46
2023-04-05T14:44:25.050Z,5.43
2023-04-05T14:46:54.479Z,5.42
2023-04-05T14:49:24.266Z,5.42
2023-04-05T14:51:54.485Z,5.39
2023-04-05T14:54:24.110Z,5.32
2023-04-05T14:56:53.864Z,5.26
2023-04-05T14:59:23.267Z,5.23
2023-04-05T15:01:52.814Z,5.15
2023-04-05T15:04:24.384Z,5.09
2023-04-05T15:06:53.751Z,5.07
2023-04-05T15:09:23.039Z,5.04
2023-04-05T15:11:54.417Z,5.06
2023-04-05T15:14:31.827Z,5.07
2023-04-05T15:17:02.397Z,5.02
2023-04-05T15:19:32.113Z,4.98
2023-04-05T15:22:01.918Z,4.96
2023-04-05T15:24:31.451Z,4.90
2023-04-05T15:27:04.118Z,4.87
2023-04-05T15:29:34.750Z,4.85
2023-04-05T15:32:05.977Z,4.82
2023-04-05T15:34:35.828Z,4.78
2023-04-05T15:37:05.449Z,4.74
2023-04-05T15:39:35.565Z,4.72
2023-04-05T15:42:08.681Z,4.71
2023-04-05T15:44:38.457Z,4.66
2023-04-05T15:47:07.760Z,4.61
2023-04-05T15:49:37.399Z,4.59
2023-04-05T15:52:08.487Z,4.54
2023-04-05T15:54:38.178Z,4.54
2023-04-05T15:57:08.474Z,4.53
2023-04-05T15:59:38.078Z,4.51
2023-04-05T16:02:08.088Z,4.48
2023-04-05T16:04:39.837Z,4.45
2023-04-05T16:07:10.434Z,4.43
2023-04-05T16:09:40.006Z,4.42
2023-04-05T16:12:11.496Z,4.41
2023-04-05T16:14:41.557Z,4.41
2023-04-05T16:17:11.305Z,4.40
2023-04-05T16:19:40.471Z,4.37
2023-04-05T16:22:10.210Z,4.37
2023-04-05T16:24:40.733Z,4.35
2023-04-05T16:27:10.341Z,4.34
2023-04-05T16:29:40.211Z,4.31
2023-04-05T16:32:11.002Z,4.31
2023-04-05T16:34:40.738Z,4.29
2023-04-05T16:37:10.065Z,4.26
2023-04-05T16:39:40.626Z,4.26
2023-04-05T16:42:13.165Z,4.25
2023-04-05T16:44:42.678Z,4.22
2023-04-05T16:47:13.060Z,4.20
2023-04-05T16:49:42.196Z,4.19
2023-04-05T16:52:12.519Z,4.16
2023-04-05T16:54:41.797Z,4.14
2023-04-05T16:57:11.814Z,4.12
2023-04-05T16:59:41.893Z,4.08
2023-04-05T17:02:11.341Z,4.07
2023-04-05T17:04:40.959Z,4.06
2023-04-05T17:07:10.330Z,4.06
2023-04-05T17:09:40.326Z,4.06
2023-04-05T17:12:12.242Z,4.08
2023-04-05T17:14:41.883Z,4.10
2023-04-05T17:17:12.503Z,4.11
2023-04-05T17:19:42.724Z,4.12
2023-04-05T17:22:14.296Z,4.12
2023-04-05T17:24:46.998Z,4.10
2023-04-05T17:27:16.508Z,4.06
2023-04-05T17:29:47.185Z,4.04
2023-04-05T17:32:17.658Z,4.02
2023-04-05T17:34:47.158Z,4.00
2023-04-05T17:37:17.181Z,3.95
2023-04-05T17:39:47.211Z,3.92
2023-04-05T17:42:19.048Z,3.88
2023-04-05T17:44:48.748Z,3.88
2023-04-05T17:47:18.943Z,3.86
2023-04-05T17:49:49.727Z,3.84
2023-04-05T17:52:22.932Z,3.82
2023-04-05T17:54:52.705Z,3.81
2023-04-05T17:57:24.990Z,3.79
2023-04-05T17:59:55.207Z,3.82
2023-04-05T18:02:25.410Z,3.85
2023-04-05T18:04:56.078Z,3.85
2023-04-05T18:07:27.620Z,3.86
2023-04-05T18:09:56.826Z,3.86
2023-04-05T18:12:29.214Z,3.85
2023-04-05T18:14:58.788Z,3.86
2023-04-05T18:17:28.549Z,3.86
2023-04-05T18:19:58.810Z,3.85
2023-04-05T18:22:33.288Z,3.85
2023-04-05T18:25:04.509Z,3.83
2023-04-05T18:27:34.033Z,3.83
2023-04-05T18:30:03.933Z,3.83
2023-04-05T18:32:33.000Z,3.81
2023-04-05T18:35:02.527Z,3.79
2023-04-05T18:37:32.499Z,3.78
2023-04-05T18:40:04.193Z,3.75
2023-04-05T18:42:34.315Z,3.73
2023-04-05T18:45:04.807Z,3.72
2023-04-05T18:47:36.322Z,3.70
2023-04-05T18:50:10.347Z,3.69
2023-04-05T18:52:40.654Z,3.67
2023-04-05T18:55:10.821Z,3.65
2023-04-05T18:57:40.805Z,3.62
2023-04-05T19:00:11.437Z,3.60
2023-04-05T19:02:41.862Z,3.57
2023-04-05T19:05:12.518Z,3.56
2023-04-05T19:07:42.385Z,3.54
2023-04-05T19:10:12.782Z,3.52
2023-04-05T19:12:43.665Z,3.50
2023-04-05T19:15:13.638Z,3.50
2023-04-05T19:17:43.641Z,3.51
2023-04-05T19:20:15.278Z,3.52
2023-04-05T19:22:45.252Z,3.51
2023-04-05T19:25:15.825Z,3.51
2023-04-05T19:27:45.838Z,3.51
2023-04-05T19:30:15.812Z,3.50
2023-04-05T19:32:45.543Z,3.47
2023-04-05T19:35:15.376Z,3.46
2023-04-05T19:37:46.503Z,3.44
2023-04-05T19:40:16.451Z,3.44
2023-04-05T19:42:48.024Z,3.42
2023-04-05T19:45:27.060Z,3.41
2023-04-05T19:47:58.476Z,3.40
2023-04-05T19:50:44.303Z,3.40
2023-04-05T19:53:33.002Z,3.41
2023-04-05T19:56:03.550Z,3.42
2023-04-05T19:58:33.195Z,3.43
2023-04-05T20:01:03.341Z,3.44
2023-04-05T20:03:41.799Z,3.42
2023-04-05T20:06:13.232Z,3.42
2023-04-05T20:08:48.551Z,3.41
2023-04-05T20:11:21.737Z,3.39
2023-04-05T20:13:57.537Z,3.39
2023-04-05T20:16:29.567Z,3.37
2023-04-05T20:19:03.321Z,3.34
2023-04-05T20:21:33.355Z,3.33
2023-04-05T20:24:03.770Z,3.32
2023-04-05T20:26:34.370Z,3.32
2023-04-05T20:29:10.020Z,3.32
2023-04-05T20:31:40.358Z,3.32
2023-04-05T20:34:16.008Z,3.33
2023-04-05T20:36:52.831Z,3.34
2023-04-05T20:39:24.352Z,3.34
2023-04-05T20:41:54.002Z,3.33
2023-04-05T20:44:25.598Z,3.32
2023-04-05T20:46:58.532Z,3.30
2023-04-05T20:49:28.531Z,3.30
2023-04-05T20:51:58.272Z,3.30
2023-04-05T20:54:27.749Z,3.28
2023-04-05T20:56:58.889Z,3.29
2023-04-05T20:59:28.823Z,3.29
2023-04-05T21:01:58.410Z,3.33
2023-04-05T21:04:29.989Z,3.35
2023-04-05T21:06:59.877Z,3.36
2023-04-05T21:09:30.610Z,3.37
2023-04-05T21:12:00.235Z,3.37
2023-04-05T21:14:30.044Z,3.39
2023-04-05T21:17:00.946Z,3.40
2023-04-05T21:19:30.026Z,3.40
2023-04-05T21:21:59.747Z,3.40
2023-04-05T21:24:29.166Z,3.39
2023-04-05T21:26:58.976Z,3.38
2023-04-05T21:29:28.716Z,3.38
2023-04-05T21:31:57.992Z,3.37
2023-04-05T21:34:31.218Z,3.35
2023-04-05T21:37:01.109Z,3.34
2023-04-05T21:39:31.113Z,3.33
2023-04-05T21:42:01.154Z,3.32
2023-04-05T21:44:30.737Z,3.30
2023-04-05T21:47:02.835Z,3.28
2023-04-05T21:49:32.545Z,3.28
2023-04-05T21:52:01.747Z,3.27
2023-04-05T21:54:31.486Z,3.25
2023-04-05T21:57:01.370Z,3.24
2023-04-05T21:59:31.062Z,3.24
2023-04-05T22:02:01.799Z,3.22
2023-04-05T22:04:31.733Z,3.22
2023-04-05T22:07:01.394Z,3.21
2023-04-05T22:09:32.334Z,3.19
2023-04-05T22:12:02.564Z,3.18
2023-04-05T22:14:33.992Z,3.16
2023-04-05T22:17:04.388Z,3.14
2023-04-05T22:19:35.085Z,3.12
2023-04-05T22:22:04.864Z,3.11
2023-04-05T22:24:35.844Z,3.09
2023-04-05T22:27:06.478Z,3.06
2023-04-05T22:29:39.546Z,3.06
2023-04-05T22:32:09.821Z,3.03
2023-04-05T22:34:39.790Z,3.00
2023-04-05T22:37:09.369Z,2.98
2023-04-05T22:39:39.645Z,2.95
2023-04-05T22:42:09.106Z,2.93
2023-04-05T22:44:40.457Z,2.91
2023-04-05T22:47:10.749Z,2.89
2023-04-05T22:49:41.660Z,2.86
2023-04-05T22:52:11.577Z,2.84
2023-04-05T22:54:42.217Z,2.82
2023-04-05T22:57:11.765Z,2.81
2023-04-05T22:59:42.329Z,2.76
2023-04-05T23:02:12.895Z,2.73
2023-04-05T23:04:42.236Z,2.70
2023-04-05T23:07:12.718Z,2.65
2023-04-05T23:09:42.625Z,2.62
2023-04-05T23:12:11.991Z,2.59
2023-04-05T23:14:42.812Z,2.56
2023-04-05T23:17:12.378Z,2.53
2023-04-05T23:19:41.820Z,2.51
2023-04-05T23:22:11.758Z,2.46
2023-04-05T23:24:41.815Z,2.43
2023-04-05T23:27:11.323Z,2.39
2023-04-05T23:29:42.858Z,2.38
2023-04-05T23:32:14.182Z,2.34
2023-04-05T23:34:43.842Z,2.31
2023-04-05T23:37:14.991Z,2.28
2023-04-05T23:39:44.459Z,2.25
2023-04-05T23:42:14.444Z,2.22
2023-04-05T23:44:43.978Z,2.21
2023-04-05T23:47:14.054Z,2.19
2023-04-05T23:49:45.181Z,2.17
2023-04-05T23:52:14.613Z,2.15
2023-04-05T23:54:45.096Z,2.12
2023-04-05T23:57:15.108Z,2.10
2023-04-05T23:59:45.011Z,2.07
